createdAt,value
2017-12-10T00:00:02.642Z,999.54
2017-12-10T00:00:43.167Z,999.51
2017-12-10T00:01:23.733Z,999.44
2017-12-10T00:02:04.272Z,999.45
2017-12-10T00:02:44.853Z,999.51
2017-12-10T00:03:25.416Z,999.46
2017-12-10T00:04:05.952Z,999.43
2017-12-10T00:04:46.534Z,999.42
2017-12-10T00:05:27.067Z,999.45
2017-12-10T00:06:07.606Z,999.41
2017-12-10T00:06:48.147Z,999.41
2017-12-10T00:07:28.707Z,999.4
2017-12-10T00:08:09.262Z,999.39
2017-12-10T00:08:49.795Z,999.41
2017-12-10T00:09:30.342Z,999.32
2017-12-10T00:10:10.883Z,999.37
2017-12-10T00:10:51.414Z,999.33
2017-12-10T00:11:31.940Z,999.29
2017-12-10T00:12:12.467Z,999.33
2017-12-10T00:12:53.026Z,999.25
2017-12-10T00:13:33.523Z,999.29
2017-12-10T00:14:14.057Z,999.25
2017-12-10T00:14:54.556Z,999.22
2017-12-10T00:15:35.110Z,999.25
2017-12-10T00:16:15.661Z,999.23
2017-12-10T00:16:56.206Z,999.25
2017-12-10T00:17:36.745Z,999.24
2017-12-10T00:18:17.256Z,999.23
2017-12-10T00:18:57.793Z,999.24
2017-12-10T00:19:38.288Z,999.2
2017-12-10T00:20:18.784Z,999.26
2017-12-10T00:20:59.348Z,999.21
2017-12-10T00:21:39.884Z,999.17
2017-12-10T00:22:21.110Z,999.18
2017-12-10T00:23:00.966Z,999.2
2017-12-10T00:23:41.501Z,999.19
2017-12-10T00:24:22.019Z,999.15
2017-12-10T00:25:02.579Z,999.17
2017-12-10T00:25:43.132Z,999.15
2017-12-10T00:26:23.663Z,999.13
2017-12-10T00:27:04.215Z,999.13
2017-12-10T00:27:44.741Z,999.07
2017-12-10T00:28:25.218Z,999.1
2017-12-10T00:29:05.877Z,999.08
2017-12-10T00:29:46.432Z,999.02
2017-12-10T00:30:26.973Z,998.95
2017-12-10T00:31:07.522Z,998.92
2017-12-10T00:31:48.037Z,998.9
2017-12-10T00:32:28.563Z,998.88
2017-12-10T00:33:09.105Z,998.83
2017-12-10T00:33:49.594Z,998.87
2017-12-10T00:34:30.142Z,998.86
2017-12-10T00:35:11.055Z,998.84
2017-12-10T00:35:51.240Z,998.81
2017-12-10T00:36:31.751Z,998.85
2017-12-10T00:37:12.314Z,998.8
2017-12-10T00:37:52.870Z,998.77
2017-12-10T00:38:33.405Z,998.7
2017-12-10T00:39:13.941Z,998.67
2017-12-10T00:39:54.508Z,998.62
2017-12-10T00:40:35.089Z,998.64
2017-12-10T00:41:15.596Z,998.57
2017-12-10T00:41:56.123Z,998.58
2017-12-10T00:42:36.673Z,998.54
2017-12-10T00:43:17.194Z,998.53
2017-12-10T00:43:57.726Z,998.52
2017-12-10T00:44:38.263Z,998.52
2017-12-10T00:45:18.830Z,998.49
2017-12-10T00:45:59.366Z,998.51
2017-12-10T00:46:39.890Z,998.44
2017-12-10T00:47:20.390Z,998.41
2017-12-10T00:48:00.965Z,998.41
2017-12-10T00:48:41.539Z,998.36
2017-12-10T00:49:22.019Z,998.35
2017-12-10T00:50:02.567Z,998.26
2017-12-10T00:50:43.124Z,998.31
2017-12-10T00:51:23.633Z,998.23
2017-12-10T00:52:04.118Z,998.19
2017-12-10T00:52:44.646Z,998.25
2017-12-10T00:53:25.206Z,998.23
2017-12-10T00:54:05.720Z,998.24
2017-12-10T00:54:46.220Z,998.18
2017-12-10T00:55:26.813Z,998.19
2017-12-10T00:56:07.344Z,998.19
2017-12-10T00:56:47.865Z,998.16
2017-12-10T00:57:28.439Z,998.12
2017-12-10T00:58:08.912Z,998.09
2017-12-10T00:58:49.421Z,998.08
2017-12-10T00:59:29.951Z,998.1
2017-12-10T01:00:10.503Z,998.02
2017-12-10T01:00:51.042Z,998.06
2017-12-10T01:01:31.560Z,998.01
2017-12-10T01:02:12.153Z,997.98
2017-12-10T01:02:52.612Z,997.96
2017-12-10T01:03:33.162Z,997.93
2017-12-10T01:04:13.714Z,997.92
2017-12-10T01:04:54.249Z,997.91
2017-12-10T01:05:34.752Z,997.91
2017-12-10T01:06:15.307Z,997.89
2017-12-10T01:06:55.828Z,997.93
2017-12-10T01:07:36.390Z,997.87
2017-12-10T01:08:16.990Z,997.85
2017-12-10T01:08:57.503Z,997.85
2017-12-10T01:09:38.056Z,997.83
2017-12-10T01:10:18.615Z,997.81
2017-12-10T01:10:59.132Z,997.73
2017-12-10T01:11:39.667Z,997.73
2017-12-10T01:12:20.205Z,997.71
2017-12-10T01:13:00.746Z,997.69
2017-12-10T01:13:41.191Z,997.73
2017-12-10T01:14:21.768Z,997.69
2017-12-10T01:15:02.279Z,997.68
2017-12-10T01:15:42.825Z,997.7
2017-12-10T01:16:23.369Z,997.66
2017-12-10T01:17:03.901Z,997.71
2017-12-10T01:17:44.461Z,997.63
2017-12-10T01:18:25.014Z,997.64
2017-12-10T01:19:05.544Z,997.63
2017-12-10T01:19:46.091Z,997.67
2017-12-10T01:20:26.608Z,997.65
2017-12-10T01:21:07.137Z,997.57
2017-12-10T01:21:47.661Z,997.6
2017-12-10T01:22:28.202Z,997.64
2017-12-10T01:23:08.710Z,997.66
2017-12-10T01:23:49.245Z,997.66
2017-12-10T01:24:29.784Z,997.68
2017-12-10T01:25:10.315Z,997.68
2017-12-10T01:25:50.878Z,997.64
2017-12-10T01:26:31.426Z,997.65
2017-12-10T01:27:11.939Z,997.66
2017-12-10T01:27:52.467Z,997.62
2017-12-10T01:28:32.992Z,997.6
2017-12-10T01:29:13.531Z,997.54
2017-12-10T01:29:54.075Z,997.58
2017-12-10T01:30:34.622Z,997.59
2017-12-10T01:31:15.167Z,997.61
2017-12-10T01:31:55.680Z,997.58
2017-12-10T01:32:36.220Z,997.58
2017-12-10T01:33:16.778Z,997.62
2017-12-10T01:33:57.280Z,997.6
2017-12-10T01:34:37.810Z,997.63
2017-12-10T01:35:18.372Z,997.58
2017-12-10T01:35:58.923Z,997.56
2017-12-10T01:36:39.460Z,997.63
2017-12-10T01:37:19.988Z,997.58
2017-12-10T01:38:00.485Z,997.55
2017-12-10T01:38:41.015Z,997.61
2017-12-10T01:39:21.529Z,997.57
2017-12-10T01:40:02.052Z,997.55
2017-12-10T01:40:42.599Z,997.55
2017-12-10T01:41:23.102Z,997.52
2017-12-10T01:42:03.613Z,997.5
2017-12-10T01:42:44.158Z,997.55
2017-12-10T01:43:24.726Z,997.48
2017-12-10T01:44:05.227Z,997.47
2017-12-10T01:44:45.758Z,997.46
2017-12-10T01:45:26.300Z,997.45
2017-12-10T01:46:06.853Z,997.48
2017-12-10T01:46:47.316Z,997.43
2017-12-10T01:47:27.859Z,997.41
2017-12-10T01:48:08.355Z,997.36
2017-12-10T01:48:48.875Z,997.42
2017-12-10T01:49:29.464Z,997.34
2017-12-10T01:50:09.993Z,997.42
2017-12-10T01:50:50.538Z,997.42
2017-12-10T01:51:31.088Z,997.37
2017-12-10T01:52:11.642Z,997.36
2017-12-10T01:52:52.154Z,997.36
2017-12-10T01:53:32.665Z,997.34
2017-12-10T01:54:13.190Z,997.36
2017-12-10T01:54:53.729Z,997.31
2017-12-10T01:55:34.295Z,997.3
2017-12-10T01:56:14.783Z,997.28
2017-12-10T01:56:55.298Z,997.27
2017-12-10T01:57:35.920Z,997.26
2017-12-10T01:58:16.482Z,997.22
2017-12-10T01:58:56.948Z,997.2
2017-12-10T01:59:37.515Z,997.26
2017-12-10T02:00:18.038Z,997.22
2017-12-10T02:00:58.629Z,997.19
2017-12-10T02:01:39.142Z,997.18
2017-12-10T02:02:19.737Z,997.2
2017-12-10T02:03:00.267Z,997.15
2017-12-10T02:03:40.789Z,997.14
2017-12-10T02:04:21.321Z,997.1
2017-12-10T02:05:01.870Z,997.11
2017-12-10T02:05:42.428Z,997.11
2017-12-10T02:06:22.934Z,997.08
2017-12-10T02:07:03.472Z,997.1
2017-12-10T02:07:43.996Z,997.06
2017-12-10T02:08:24.528Z,997.12
2017-12-10T02:09:05.104Z,997.07
2017-12-10T02:09:45.669Z,997.11
2017-12-10T02:10:26.241Z,997.11
2017-12-10T02:11:06.741Z,997.1
2017-12-10T02:11:47.276Z,997.08
2017-12-10T02:12:27.777Z,997.04
2017-12-10T02:13:08.330Z,997.02
2017-12-10T02:13:48.843Z,997.02
2017-12-10T02:14:29.404Z,997.02
2017-12-10T02:15:09.943Z,997.04
2017-12-10T02:15:50.489Z,997
2017-12-10T02:16:31.010Z,996.96
2017-12-10T02:17:11.562Z,996.95
2017-12-10T02:17:52.117Z,996.94
2017-12-10T02:18:32.667Z,996.89
2017-12-10T02:19:13.160Z,996.86
2017-12-10T02:19:53.684Z,996.86
2017-12-10T02:20:34.230Z,996.86
2017-12-10T02:21:14.734Z,996.83
2017-12-10T02:21:55.268Z,996.8
2017-12-10T02:22:35.836Z,996.8
2017-12-10T02:23:16.344Z,996.74
2017-12-10T02:23:56.859Z,996.68
2017-12-10T02:24:37.389Z,996.73
2017-12-10T02:25:17.940Z,996.76
2017-12-10T02:25:58.500Z,996.73
2017-12-10T02:26:39.054Z,996.67
2017-12-10T02:27:19.585Z,996.59
2017-12-10T02:28:00.091Z,996.59
2017-12-10T02:28:40.590Z,996.58
2017-12-10T02:29:21.144Z,996.52
2017-12-10T02:30:01.703Z,996.46
2017-12-10T02:30:42.261Z,996.5
2017-12-10T02:31:22.799Z,996.44
2017-12-10T02:32:03.342Z,996.4
2017-12-10T02:32:43.864Z,996.33
2017-12-10T02:33:24.402Z,996.37
2017-12-10T02:34:04.967Z,996.36
2017-12-10T02:34:45.454Z,996.36
2017-12-10T02:35:26.017Z,996.39
2017-12-10T02:36:06.526Z,996.3
2017-12-10T02:36:47.082Z,996.32
2017-12-10T02:37:27.565Z,996.29
2017-12-10T02:38:08.134Z,996.27
2017-12-10T02:38:48.681Z,996.25
2017-12-10T02:39:29.232Z,996.25
2017-12-10T02:40:09.764Z,996.21
2017-12-10T02:40:50.303Z,996.14
2017-12-10T02:41:30.836Z,996.15
2017-12-10T02:42:11.375Z,996.09
2017-12-10T02:42:51.928Z,996.12
2017-12-10T02:43:32.445Z,996.05
2017-12-10T02:44:12.983Z,996.08
2017-12-10T02:44:53.499Z,996.08
2017-12-10T02:45:34.002Z,996.04
2017-12-10T02:46:14.577Z,996.02
2017-12-10T02:46:55.134Z,996.02
2017-12-10T02:47:35.628Z,996
2017-12-10T02:48:16.154Z,995.98
2017-12-10T02:48:56.698Z,995.94
2017-12-10T02:49:37.246Z,995.93
2017-12-10T02:50:17.780Z,995.9
2017-12-10T02:50:58.312Z,995.82
2017-12-10T02:51:38.862Z,995.84
2017-12-10T02:52:19.414Z,995.75
2017-12-10T02:52:59.926Z,995.77
2017-12-10T02:53:40.469Z,995.68
2017-12-10T02:54:20.987Z,995.67
2017-12-10T02:55:01.538Z,995.63
2017-12-10T02:55:42.021Z,995.57
2017-12-10T02:56:22.626Z,995.56
2017-12-10T02:57:03.160Z,995.53
2017-12-10T02:57:43.694Z,995.52
2017-12-10T02:58:24.266Z,995.55
2017-12-10T02:59:04.802Z,995.5
2017-12-10T02:59:45.304Z,995.54
2017-12-10T03:00:25.859Z,995.49
2017-12-10T03:01:06.395Z,995.45
2017-12-10T03:01:46.970Z,995.41
2017-12-10T03:02:27.464Z,995.35
2017-12-10T03:03:07.974Z,995.39
2017-12-10T03:03:48.494Z,995.34
2017-12-10T03:04:29.052Z,995.33
2017-12-10T03:05:09.580Z,995.32
2017-12-10T03:05:50.114Z,995.31
2017-12-10T03:06:30.659Z,995.34
2017-12-10T03:07:11.198Z,995.29
2017-12-10T03:07:51.705Z,995.32
2017-12-10T03:08:32.213Z,995.33
2017-12-10T03:09:12.753Z,995.29
2017-12-10T03:09:53.301Z,995.34
2017-12-10T03:10:33.806Z,995.36
2017-12-10T03:11:14.338Z,995.33
2017-12-10T03:11:54.932Z,995.32
2017-12-10T03:12:35.444Z,995.3
2017-12-10T03:13:16.003Z,995.28
2017-12-10T03:13:56.509Z,995.22
2017-12-10T03:14:37.034Z,995.28
2017-12-10T03:15:17.580Z,995.26
2017-12-10T03:15:58.124Z,995.27
2017-12-10T03:16:38.686Z,995.29
2017-12-10T03:17:19.199Z,995.24
2017-12-10T03:17:59.761Z,995.24
2017-12-10T03:18:40.319Z,995.23
2017-12-10T03:19:20.801Z,995.24
2017-12-10T03:20:01.378Z,995.17
2017-12-10T03:20:41.907Z,995.19
2017-12-10T03:21:22.417Z,995.17
2017-12-10T03:22:02.961Z,995.17
2017-12-10T03:22:43.528Z,995.13
2017-12-10T03:23:24.064Z,995.1
2017-12-10T03:24:04.609Z,995.11
2017-12-10T03:24:45.132Z,995.05
2017-12-10T03:25:25.684Z,995.03
2017-12-10T03:26:06.215Z,995.02
2017-12-10T03:26:46.732Z,995.05
2017-12-10T03:27:27.269Z,995.03
2017-12-10T03:28:07.822Z,994.99
2017-12-10T03:28:48.360Z,994.97
2017-12-10T03:29:28.915Z,994.96
2017-12-10T03:30:09.483Z,994.96
2017-12-10T03:30:50.051Z,994.9
2017-12-10T03:31:30.565Z,994.91
2017-12-10T03:32:11.106Z,994.91
2017-12-10T03:32:51.646Z,994.89
2017-12-10T03:33:32.182Z,994.9
2017-12-10T03:34:12.713Z,994.91
2017-12-10T03:34:53.264Z,994.86
2017-12-10T03:35:33.784Z,994.85
2017-12-10T03:36:14.434Z,994.81
2017-12-10T03:36:54.974Z,994.85
2017-12-10T03:37:35.522Z,994.8
2017-12-10T03:38:16.052Z,994.77
2017-12-10T03:38:56.616Z,994.84
2017-12-10T03:39:37.163Z,994.81
2017-12-10T03:40:17.661Z,994.77
2017-12-10T03:40:58.216Z,994.74
2017-12-10T03:41:38.760Z,994.75
2017-12-10T03:42:19.347Z,994.7
2017-12-10T03:42:59.899Z,994.7
2017-12-10T03:43:40.466Z,994.69
2017-12-10T03:44:20.997Z,994.64
2017-12-10T03:45:01.524Z,994.61
2017-12-10T03:45:42.017Z,994.57
2017-12-10T03:46:22.545Z,994.6
2017-12-10T03:47:03.082Z,994.58
2017-12-10T03:47:43.612Z,994.61
2017-12-10T03:48:24.154Z,994.56
2017-12-10T03:49:04.699Z,994.56
2017-12-10T03:49:45.215Z,994.59
2017-12-10T03:50:25.746Z,994.56
2017-12-10T03:51:06.272Z,994.57
2017-12-10T03:51:46.846Z,994.52
2017-12-10T03:52:27.398Z,994.45
2017-12-10T03:53:07.929Z,994.51
2017-12-10T03:53:48.484Z,994.48
2017-12-10T03:54:28.973Z,994.41
2017-12-10T03:55:09.462Z,994.37
2017-12-10T03:55:50.021Z,994.3
2017-12-10T03:56:30.535Z,994.33
2017-12-10T03:57:11.090Z,994.31
2017-12-10T03:57:51.578Z,994.3
2017-12-10T03:58:32.128Z,994.29
2017-12-10T03:59:12.713Z,994.3
2017-12-10T03:59:53.227Z,994.25
2017-12-10T04:00:33.740Z,994.21
2017-12-10T04:01:14.257Z,994.15
2017-12-10T04:01:54.784Z,994.17
2017-12-10T04:02:35.343Z,994.15
2017-12-10T04:03:15.869Z,994.13
2017-12-10T04:03:56.404Z,994.11
2017-12-10T04:04:36.941Z,994.04
2017-12-10T04:05:17.465Z,993.99
2017-12-10T04:05:57.992Z,993.99
2017-12-10T04:06:38.608Z,994.01
2017-12-10T04:07:19.078Z,993.97
2017-12-10T04:07:59.617Z,993.93
2017-12-10T04:08:40.152Z,993.92
2017-12-10T04:09:20.697Z,993.86
2017-12-10T04:10:01.221Z,993.85
2017-12-10T04:10:41.715Z,993.87
2017-12-10T04:11:22.243Z,993.88
2017-12-10T04:12:02.794Z,993.85
2017-12-10T04:12:43.339Z,993.85
2017-12-10T04:13:23.882Z,993.82
2017-12-10T04:14:04.416Z,993.79
2017-12-10T04:14:44.915Z,993.75
2017-12-10T04:15:25.470Z,993.83
2017-12-10T04:16:05.999Z,993.82
2017-12-10T04:16:46.566Z,993.77
2017-12-10T04:17:27.088Z,993.76
2017-12-10T04:18:07.609Z,993.71
2017-12-10T04:18:48.146Z,993.7
2017-12-10T04:19:28.738Z,993.67
2017-12-10T04:20:09.207Z,993.59
2017-12-10T04:20:49.713Z,993.58
2017-12-10T04:21:30.255Z,993.6
2017-12-10T04:22:10.789Z,993.51
2017-12-10T04:22:51.366Z,993.56
2017-12-10T04:23:31.865Z,993.56
2017-12-10T04:24:13.032Z,993.53
2017-12-10T04:24:53.574Z,993.5
2017-12-10T04:25:34.125Z,993.48
2017-12-10T04:26:14.656Z,993.42
2017-12-10T04:26:55.184Z,993.45
2017-12-10T04:27:35.721Z,993.41
2017-12-10T04:28:16.266Z,993.39
2017-12-10T04:28:56.782Z,993.42
2017-12-10T04:29:37.322Z,993.38
2017-12-10T04:30:17.873Z,993.32
2017-12-10T04:30:58.350Z,993.34
2017-12-10T04:31:38.966Z,993.3
2017-12-10T04:32:19.519Z,993.27
2017-12-10T04:33:00.061Z,993.23
2017-12-10T04:33:40.623Z,993.21
2017-12-10T04:34:21.175Z,993.25
2017-12-10T04:35:01.659Z,993.18
2017-12-10T04:35:42.247Z,993.13
2017-12-10T04:36:22.733Z,993.15
2017-12-10T04:37:03.289Z,993.2
2017-12-10T04:37:43.831Z,993.2
2017-12-10T04:38:24.349Z,993.17
2017-12-10T04:39:04.896Z,993.19
2017-12-10T04:39:45.407Z,993.18
2017-12-10T04:40:25.941Z,993.16
2017-12-10T04:41:06.489Z,993.12
2017-12-10T04:41:47.061Z,993.14
2017-12-10T04:42:27.586Z,993.1
2017-12-10T04:43:08.127Z,993.02
2017-12-10T04:43:48.706Z,993.06
2017-12-10T04:44:29.240Z,993.06
2017-12-10T04:45:09.785Z,993.03
2017-12-10T04:45:50.303Z,993.07
2017-12-10T04:46:30.864Z,992.98
2017-12-10T04:47:12.161Z,992.98
2017-12-10T04:47:51.972Z,993.01
2017-12-10T04:48:32.496Z,992.97
2017-12-10T04:49:13.002Z,992.91
2017-12-10T04:49:53.549Z,992.93
2017-12-10T04:50:34.071Z,992.92
2017-12-10T04:51:14.626Z,992.9
2017-12-10T04:51:55.201Z,992.84
2017-12-10T04:52:35.684Z,992.85
2017-12-10T04:53:16.249Z,992.88
2017-12-10T04:53:56.753Z,992.85
2017-12-10T04:54:37.296Z,992.83
2017-12-10T04:55:17.825Z,992.79
2017-12-10T04:55:58.354Z,992.78
2017-12-10T04:56:38.896Z,992.78
2017-12-10T04:57:19.456Z,992.79
2017-12-10T04:58:00.001Z,992.79
2017-12-10T04:58:40.499Z,992.79
2017-12-10T04:59:21.081Z,992.78
2017-12-10T05:00:01.611Z,992.73
2017-12-10T05:00:42.162Z,992.68
2017-12-10T05:01:22.682Z,992.69
2017-12-10T05:02:03.203Z,992.65
2017-12-10T05:02:43.768Z,992.67
2017-12-10T05:03:24.293Z,992.67
2017-12-10T05:04:04.847Z,992.73
2017-12-10T05:04:45.396Z,992.64
2017-12-10T05:05:25.946Z,992.65
2017-12-10T05:06:06.474Z,992.62
2017-12-10T05:06:47.673Z,992.61
2017-12-10T05:07:27.552Z,992.59
2017-12-10T05:08:08.100Z,992.59
2017-12-10T05:08:48.637Z,992.54
2017-12-10T05:09:29.168Z,992.55
2017-12-10T05:10:09.705Z,992.51
2017-12-10T05:10:50.220Z,992.52
2017-12-10T05:11:30.767Z,992.5
2017-12-10T05:12:11.285Z,992.49
2017-12-10T05:12:51.827Z,992.46
2017-12-10T05:13:32.361Z,992.38
2017-12-10T05:14:12.872Z,992.38
2017-12-10T05:14:53.428Z,992.4
2017-12-10T05:15:33.977Z,992.37
2017-12-10T05:16:14.563Z,992.39
2017-12-10T05:16:55.060Z,992.37
2017-12-10T05:17:35.538Z,992.33
2017-12-10T05:18:16.103Z,992.23
2017-12-10T05:18:56.635Z,992.23
2017-12-10T05:19:37.182Z,992.22
2017-12-10T05:20:17.743Z,992.19
2017-12-10T05:20:58.248Z,992.15
2017-12-10T05:21:38.786Z,992.16
2017-12-10T05:22:19.331Z,992.08
2017-12-10T05:22:59.884Z,992.05
2017-12-10T05:23:40.427Z,992
2017-12-10T05:24:20.953Z,991.96
2017-12-10T05:25:01.499Z,991.99
2017-12-10T05:25:42.007Z,991.91
2017-12-10T05:26:22.567Z,991.98
2017-12-10T05:27:03.096Z,991.89
2017-12-10T05:27:43.632Z,991.85
2017-12-10T05:28:24.142Z,991.81
2017-12-10T05:29:04.700Z,991.79
2017-12-10T05:29:45.200Z,991.73
2017-12-10T05:30:25.752Z,991.78
2017-12-10T05:31:06.269Z,991.67
2017-12-10T05:31:46.852Z,991.68
2017-12-10T05:32:27.397Z,991.66
2017-12-10T05:33:07.934Z,991.66
2017-12-10T05:33:48.495Z,991.65
2017-12-10T05:34:29.024Z,991.61
2017-12-10T05:35:09.558Z,991.61
2017-12-10T05:35:50.083Z,991.59
2017-12-10T05:36:30.606Z,991.58
2017-12-10T05:37:11.178Z,991.56
2017-12-10T05:37:51.700Z,991.5
2017-12-10T05:38:32.218Z,991.54
2017-12-10T05:39:12.759Z,991.48
2017-12-10T05:39:53.307Z,991.49
2017-12-10T05:40:33.906Z,991.43
2017-12-10T05:41:14.418Z,991.42
2017-12-10T05:41:54.996Z,991.47
2017-12-10T05:42:35.536Z,991.49
2017-12-10T05:43:16.119Z,991.45
2017-12-10T05:43:56.625Z,991.49
2017-12-10T05:44:37.179Z,991.43
2017-12-10T05:45:17.697Z,991.39
2017-12-10T05:45:58.257Z,991.33
2017-12-10T05:46:38.772Z,991.35
2017-12-10T05:47:19.317Z,991.33
2017-12-10T05:47:59.843Z,991.28
2017-12-10T05:48:40.435Z,991.32
2017-12-10T05:49:20.944Z,991.31
2017-12-10T05:50:01.466Z,991.26
2017-12-10T05:50:41.976Z,991.24
2017-12-10T05:51:22.521Z,991.18
2017-12-10T05:52:03.063Z,991.16
2017-12-10T05:52:43.613Z,991.11
2017-12-10T05:53:24.148Z,991.11
2017-12-10T05:54:04.683Z,991.14
2017-12-10T05:54:45.251Z,991.11
2017-12-10T05:55:25.783Z,991.05
2017-12-10T05:56:06.317Z,991.04
2017-12-10T05:56:46.867Z,990.96
2017-12-10T05:57:27.360Z,990.94
2017-12-10T05:58:07.922Z,990.92
2017-12-10T05:58:48.499Z,990.92
2017-12-10T05:59:29.031Z,990.89
2017-12-10T06:00:09.571Z,990.87
2017-12-10T06:00:50.052Z,990.88
2017-12-10T06:01:30.616Z,990.88
2017-12-10T06:02:11.218Z,990.82
2017-12-10T06:02:51.749Z,990.82
2017-12-10T06:03:32.291Z,990.81
2017-12-10T06:04:12.859Z,990.77
2017-12-10T06:04:53.465Z,990.75
2017-12-10T06:05:33.860Z,990.72
2017-12-10T06:06:14.410Z,990.73
2017-12-10T06:06:54.982Z,990.73
2017-12-10T06:07:35.553Z,990.75
2017-12-10T06:08:16.674Z,990.74
2017-12-10T06:08:56.773Z,990.68
2017-12-10T06:09:37.267Z,990.67
2017-12-10T06:10:17.884Z,990.63
2017-12-10T06:10:58.392Z,990.62
2017-12-10T06:11:38.900Z,990.54
2017-12-10T06:12:19.444Z,990.54
2017-12-10T06:12:59.948Z,990.44
2017-12-10T06:13:40.496Z,990.46
2017-12-10T06:14:21.070Z,990.4
2017-12-10T06:15:01.586Z,990.41
2017-12-10T06:15:42.187Z,990.37
2017-12-10T06:16:22.714Z,990.36
2017-12-10T06:17:03.272Z,990.3
2017-12-10T06:17:43.800Z,990.29
2017-12-10T06:18:24.297Z,990.29
2017-12-10T06:19:04.894Z,990.23
2017-12-10T06:19:45.447Z,990.24
2017-12-10T06:20:25.910Z,990.19
2017-12-10T06:21:06.456Z,990.19
2017-12-10T06:21:46.961Z,990.14
2017-12-10T06:22:27.519Z,990.09
2017-12-10T06:23:08.075Z,990.06
2017-12-10T06:23:48.563Z,990.04
2017-12-10T06:24:29.106Z,990.01
2017-12-10T06:25:09.657Z,989.95
2017-12-10T06:25:50.192Z,989.89
2017-12-10T06:26:30.735Z,989.91
2017-12-10T06:27:11.260Z,989.88
2017-12-10T06:27:51.820Z,989.79
2017-12-10T06:28:32.347Z,989.76
2017-12-10T06:29:12.877Z,989.69
2017-12-10T06:29:53.412Z,989.68
2017-12-10T06:30:33.961Z,989.57
2017-12-10T06:31:14.511Z,989.57
2017-12-10T06:31:55.041Z,989.47
2017-12-10T06:32:35.578Z,989.45
2017-12-10T06:33:16.168Z,989.41
2017-12-10T06:33:56.730Z,989.33
2017-12-10T06:34:37.266Z,989.32
2017-12-10T06:35:17.846Z,989.29
2017-12-10T06:35:58.397Z,989.19
2017-12-10T06:36:38.932Z,989.14
2017-12-10T06:37:19.453Z,989.04
2017-12-10T06:37:59.958Z,988.99
2017-12-10T06:38:40.477Z,988.92
2017-12-10T06:39:21.021Z,988.87
2017-12-10T06:40:01.594Z,988.82
2017-12-10T06:40:42.181Z,988.74
2017-12-10T06:41:22.654Z,988.72
2017-12-10T06:42:03.183Z,988.69
2017-12-10T06:42:43.743Z,988.6
2017-12-10T06:43:24.311Z,988.62
2017-12-10T06:44:04.869Z,988.56
2017-12-10T06:44:45.430Z,988.53
2017-12-10T06:45:25.984Z,988.53
2017-12-10T06:46:06.540Z,988.43
2017-12-10T06:46:47.100Z,988.36
2017-12-10T06:47:27.651Z,988.37
2017-12-10T06:48:08.240Z,988.31
2017-12-10T06:48:48.782Z,988.31
2017-12-10T06:49:29.334Z,988.29
2017-12-10T06:50:09.861Z,988.25
2017-12-10T06:50:50.423Z,988.23
2017-12-10T06:51:30.943Z,988.26
2017-12-10T06:52:11.472Z,988.25
2017-12-10T06:52:52.013Z,988.26
2017-12-10T06:53:32.977Z,988.25
2017-12-10T06:54:13.511Z,988.22
2017-12-10T06:54:54.067Z,988.22
2017-12-10T06:55:34.611Z,988.18
2017-12-10T06:56:15.140Z,988.18
2017-12-10T06:56:55.737Z,988.14
2017-12-10T06:57:36.747Z,988.09
2017-12-10T06:58:17.280Z,988.08
2017-12-10T06:58:57.844Z,988.09
2017-12-10T06:59:38.398Z,988.06
2017-12-10T07:00:18.947Z,988.08
2017-12-10T07:00:59.504Z,988.05
2017-12-10T07:01:40.055Z,988.04
2017-12-10T07:02:20.617Z,988.04
2017-12-10T07:03:01.173Z,988
2017-12-10T07:03:41.735Z,988
2017-12-10T07:04:22.281Z,987.93
2017-12-10T07:05:02.836Z,987.94
2017-12-10T07:05:43.396Z,987.95
2017-12-10T07:06:23.956Z,987.91
2017-12-10T07:07:04.515Z,987.86
2017-12-10T07:07:45.047Z,987.88
2017-12-10T07:08:25.596Z,987.82
2017-12-10T07:09:06.155Z,987.75
2017-12-10T07:09:46.705Z,987.75
2017-12-10T07:10:27.271Z,987.74
2017-12-10T07:11:07.827Z,987.62
2017-12-10T07:11:48.357Z,987.64
2017-12-10T07:12:28.911Z,987.6
2017-12-10T07:13:09.458Z,987.49
2017-12-10T07:13:50.017Z,987.53
2017-12-10T07:14:30.580Z,987.41
2017-12-10T07:15:11.127Z,987.38
2017-12-10T07:15:51.673Z,987.4
2017-12-10T07:16:32.234Z,987.36
2017-12-10T07:17:12.782Z,987.35
2017-12-10T07:17:53.351Z,987.32
2017-12-10T07:18:33.899Z,987.3
2017-12-10T07:19:14.449Z,987.32
2017-12-10T07:19:55.004Z,987.28
2017-12-10T07:20:35.567Z,987.23
2017-12-10T07:21:16.148Z,987.24
2017-12-10T07:21:56.692Z,987.17
2017-12-10T07:22:37.244Z,987.21
2017-12-10T07:23:17.815Z,987.19
2017-12-10T07:23:58.374Z,987.22
2017-12-10T07:24:38.931Z,987.2
2017-12-10T07:25:19.485Z,987.16
2017-12-10T07:26:00.071Z,987.08
2017-12-10T07:26:40.621Z,986.99
2017-12-10T07:27:21.185Z,986.96
2017-12-10T07:28:01.742Z,986.9
2017-12-10T07:28:42.298Z,986.87
2017-12-10T07:29:22.853Z,986.83
2017-12-10T07:30:03.420Z,986.84
2017-12-10T07:30:44.010Z,986.85
2017-12-10T07:31:24.555Z,986.81
2017-12-10T07:32:05.137Z,986.77
2017-12-10T07:32:45.696Z,986.78
2017-12-10T07:33:26.265Z,986.69
2017-12-10T07:34:06.826Z,986.71
2017-12-10T07:34:47.381Z,986.71
2017-12-10T07:35:27.931Z,986.61
2017-12-10T07:36:08.505Z,986.59
2017-12-10T07:36:49.044Z,986.54
2017-12-10T07:37:29.605Z,986.49
2017-12-10T07:38:10.154Z,986.42
2017-12-10T07:38:50.707Z,986.35
2017-12-10T07:39:31.291Z,986.3
2017-12-10T07:40:11.868Z,986.27
2017-12-10T07:40:52.423Z,986.22
2017-12-10T07:41:32.957Z,986.24
2017-12-10T07:42:13.516Z,986.2
2017-12-10T07:42:54.073Z,986.16
2017-12-10T07:43:34.623Z,986.15
2017-12-10T07:44:15.185Z,986.07
2017-12-10T07:44:55.712Z,986.04
2017-12-10T07:45:36.298Z,985.99
2017-12-10T07:46:16.876Z,985.97
2017-12-10T07:46:57.452Z,985.9
2017-12-10T07:47:38.013Z,985.83
2017-12-10T07:48:18.569Z,985.79
2017-12-10T07:48:59.120Z,985.69
2017-12-10T07:49:39.678Z,985.73
2017-12-10T07:50:20.227Z,985.68
2017-12-10T07:51:00.830Z,985.67
2017-12-10T07:51:41.376Z,985.66
2017-12-10T07:52:21.944Z,985.63
2017-12-10T07:53:02.511Z,985.65
2017-12-10T07:53:43.056Z,985.6
2017-12-10T07:54:23.625Z,985.6
2017-12-10T07:55:04.248Z,985.52
2017-12-10T07:55:44.816Z,985.49
2017-12-10T07:56:25.364Z,985.48
2017-12-10T07:57:05.903Z,985.52
2017-12-10T07:57:46.458Z,985.52
2017-12-10T07:58:27.002Z,985.51
2017-12-10T07:59:07.569Z,985.4
2017-12-10T07:59:48.134Z,985.38
2017-12-10T08:00:28.698Z,985.31
2017-12-10T08:01:09.251Z,985.22
2017-12-10T08:01:49.818Z,985.13
2017-12-10T08:02:30.377Z,985.04
2017-12-10T08:03:10.939Z,985.03
2017-12-10T08:03:51.479Z,985.04
2017-12-10T08:04:32.048Z,985.02
2017-12-10T08:05:12.603Z,985.06
2017-12-10T08:05:53.172Z,985.05
2017-12-10T08:06:33.770Z,985
2017-12-10T08:07:14.291Z,984.97
2017-12-10T08:07:54.842Z,984.92
2017-12-10T08:08:35.393Z,984.9
2017-12-10T08:09:15.938Z,984.89
2017-12-10T08:09:56.549Z,984.85
2017-12-10T08:10:37.113Z,984.81
2017-12-10T08:11:17.690Z,984.76
2017-12-10T08:11:58.261Z,984.78
2017-12-10T08:12:38.828Z,984.71
2017-12-10T08:13:19.434Z,984.65
2017-12-10T08:13:59.961Z,984.64
2017-12-10T08:14:40.486Z,984.65
2017-12-10T08:15:21.017Z,984.68
2017-12-10T08:16:01.572Z,984.57
2017-12-10T08:16:42.099Z,984.57
2017-12-10T08:17:22.661Z,984.61
2017-12-10T08:18:03.215Z,984.58
2017-12-10T08:18:43.770Z,984.61
2017-12-10T08:19:24.342Z,984.57
2017-12-10T08:20:04.895Z,984.59
2017-12-10T08:20:45.430Z,984.61
2017-12-10T08:21:25.991Z,984.69
2017-12-10T08:22:06.543Z,984.72
2017-12-10T08:22:47.095Z,984.73
2017-12-10T08:23:27.655Z,984.75
2017-12-10T08:24:08.231Z,984.74
2017-12-10T08:24:48.773Z,984.67
2017-12-10T08:25:29.347Z,984.7
2017-12-10T08:26:09.881Z,984.67
2017-12-10T08:26:50.467Z,984.58
2017-12-10T08:27:31.019Z,984.58